Sunflower Gold — JD2460 — position and weather

sailwx.info

Track history (hours):
 
Tides and Currents Weather Stations Pressure Air Temp Water Temp Dewpoint Dewpoint Depression Visibility Wind Speed Wind Dir Waves Ship Positions

Sunflower Gold

Last reported at 2016-Aug-29 06:29 UTC. Time now 2016-Aug-29 07:08 UTC.
Position N 34°42' E 135°17'.

Length 166 m; draft 5.8 m.

Type: Passenger vessel. MMSI: 431000331.

Date/timePositionNaut miles runAvg speedWind from/ knotsBaromVisibWave heightAir tempDewpointWater temp
2016-Aug-29 06:29N 34°42' E 135°17'0 0.0
2016-Aug-29 05:26N 34°42' E 135°17'0 0.0
2016-Aug-29 04:26N 34°42' E 135°17'0 0.0
2016-Aug-29 01:29N 34°42' E 135°17'0 0.0
2016-Aug-29 00:29N 34°42' E 135°17'0 0.0
2016-Aug-28 23:29N 34°42' E 135°17'0 0.0
2016-Aug-28 22:23N 34°42' E 135°17'0 0.0
2016-Aug-28 21:34N 34°42' E 135°17'1211.7
2016-Aug-28 20:33N 34°35' E 135°06'2 0.1
2016-Aug-27 11:33N 34°36' E 135°07'10 9.8
2016-Aug-27 10:33N 34°42' E 135°17'0 0.0
2016-Aug-27 09:24N 34°42' E 135°17'0 0.0
2016-Aug-27 08:30N 34°42' E 135°17'0 0.0
2016-Aug-27 07:30N 34°42' E 135°17'0 0.0
2016-Aug-27 06:30N 34°42' E 135°17'0 0.0
2016-Aug-27 04:30N 34°42' E 135°17'0 0.0
2016-Aug-27 03:30N 34°42' E 135°17'0 0.0
2016-Aug-27 02:30N 34°42' E 135°17'0 0.0
2016-Aug-27 01:24N 34°42' E 135°17'0 0.0
2016-Aug-27 00:30N 34°42' E 135°17'0 0.0
2016-Aug-26 23:30N 34°42' E 135°17'1 1.0
2016-Aug-26 22:33N 34°41' E 135°18'1413.7
2016-Aug-26 21:33N 34°36' E 135°02'10 0.3
2016-Aug-25 11:33N 34°35' E 134°51'1817.9
2016-Aug-25 10:33N 34°36' E 135°12'7 6.3
2016-Aug-25 09:30N 34°42' E 135°17'0 0.0
2016-Aug-25 08:30N 34°42' E 135°17'0 0.0
2016-Aug-25 07:30N 34°42' E 135°17'0 0.0
2016-Aug-25 06:30N 34°42' E 135°17'0 0.0
2016-Aug-25 04:30N 34°42' E 135°17'0 0.0
2016-Aug-25 03:30N 34°42' E 135°17'0 0.0
2016-Aug-25 02:30N 34°42' E 135°17'0 0.0
2016-Aug-25 01:30N 34°42' E 135°17'0 0.0
2016-Aug-25 00:30N 34°42' E 135°17'0 0.0
2016-Aug-24 23:30N 34°42' E 135°17'0 0.0
2016-Aug-24 22:30N 34°42' E 135°17'0 0.0
2016-Aug-24 21:33N 34°42' E 135°17'1212.3
2016-Aug-24 20:34N 34°34' E 135°06'13 0.4
2016-Aug-23 11:28N 34°35' E 134°50'1719.1
2016-Aug-23 10:33N 34°36' E 135°11'8 7.4
2016-Aug-23 09:32N 34°42' E 135°17'0 0.0
2016-Aug-23 08:32N 34°42' E 135°17'0 0.0
2016-Aug-23 07:32N 34°42' E 135°17'0 0.0
2016-Aug-23 06:32N 34°42' E 135°17'0 0.0
2016-Aug-23 05:32N 34°42' E 135°17'0 0.0
2016-Aug-23 04:26N 34°42' E 135°17'0 0.0
2016-Aug-23 03:32N 34°42' E 135°17'0 0.0
2016-Aug-23 02:32N 34°42' E 135°17'0 0.0
2016-Aug-23 01:32N 34°42' E 135°17'0 0.0
2016-Aug-23 00:32N 34°42' E 135°17'0 0.0
2016-Aug-22 23:32N 34°42' E 135°17'0 0.0
2016-Aug-22 22:32N 34°42' E 135°17'0 0.0
2016-Aug-22 21:33N 34°42' E 135°17'10 9.9
2016-Aug-22 20:33N 34°35' E 135°09'16 0.5
2016-Aug-21 11:29N 34°34' E 134°49'1819.9
2016-Aug-21 10:33N 34°36' E 135°11'7 5.7
2016-Aug-21 09:16N 34°42' E 135°17'0 0.0
2016-Aug-21 08:28N 34°42' E 135°17'0 0.0
2016-Aug-21 07:22N 34°42' E 135°17'0 0.0
2016-Aug-21 06:28N 34°42' E 135°17'0 0.0
2016-Aug-21 05:22N 34°42' E 135°17'0 0.0
2016-Aug-21 04:28N 34°42' E 135°17'0 0.0
2016-Aug-21 03:16N 34°42' E 135°17'0 0.0
2016-Aug-21 02:28N 34°42' E 135°17'0 0.0
2016-Aug-21 01:28N 34°42' E 135°17'0 0.0
2016-Aug-21 00:28N 34°42' E 135°17'0 0.0
2016-Aug-20 23:28N 34°42' E 135°17'2 2.6
2016-Aug-20 22:33N 34°40' E 135°18'1716.6
2016-Aug-20 21:33N 34°37' E 134°58'5 0.2
2016-Aug-19 12:10N 34°35' E 134°53'1321.0
2016-Aug-19 11:33N 34°36' E 135°08'9 9.4
2016-Aug-19 10:33N 34°42' E 135°17'0 0.0
2016-Aug-19 09:20N 34°42' E 135°17'0 0.0
2016-Aug-19 08:20N 34°42' E 135°17'0 0.0
2016-Aug-19 07:32N 34°42' E 135°17'0 0.0
2016-Aug-19 06:32N 34°42' E 135°17'  
Track history (hours):
 
Tides and Currents Weather Stations Pressure Air Temp Water Temp Dewpoint Dewpoint Depression Visibility Wind Speed Wind Dir Waves Ship Positions

Sunflower Gold

Last reported at 2016-Aug-29 06:29 UTC. Time now 2016-Aug-29 07:08 UTC.
Position N 34°42' E 135°17'.

Length 166 m; draft 5.8 m.

Type: Passenger vessel. MMSI: 431000331.

Date/timePositionNaut miles runAvg speedWind from/ knotsBaromVisibWave heightAir tempDewpointWater temp
2016-Aug-29 06:29N 34°42' E 135°17'0 0.0
2016-Aug-29 05:26N 34°42' E 135°17'0 0.0
2016-Aug-29 04:26N 34°42' E 135°17'0 0.0
2016-Aug-29 01:29N 34°42' E 135°17'0 0.0
2016-Aug-29 00:29N 34°42' E 135°17'0 0.0
2016-Aug-28 23:29N 34°42' E 135°17'0 0.0
2016-Aug-28 22:23N 34°42' E 135°17'0 0.0
2016-Aug-28 21:34N 34°42' E 135°17'1211.7
2016-Aug-28 20:33N 34°35' E 135°06'2 0.1
2016-Aug-27 11:33N 34°36' E 135°07'10 9.8
2016-Aug-27 10:33N 34°42' E 135°17'0 0.0
2016-Aug-27 09:24N 34°42' E 135°17'0 0.0
2016-Aug-27 08:30N 34°42' E 135°17'0 0.0
2016-Aug-27 07:30N 34°42' E 135°17'0 0.0
2016-Aug-27 06:30N 34°42' E 135°17'0 0.0
2016-Aug-27 04:30N 34°42' E 135°17'0 0.0
2016-Aug-27 03:30N 34°42' E 135°17'0 0.0
2016-Aug-27 02:30N 34°42' E 135°17'0 0.0
2016-Aug-27 01:24N 34°42' E 135°17'0 0.0
2016-Aug-27 00:30N 34°42' E 135°17'0 0.0
2016-Aug-26 23:30N 34°42' E 135°17'1 1.0
2016-Aug-26 22:33N 34°41' E 135°18'1413.7
2016-Aug-26 21:33N 34°36' E 135°02'10 0.3
2016-Aug-25 11:33N 34°35' E 134°51'1817.9
2016-Aug-25 10:33N 34°36' E 135°12'7 6.3
2016-Aug-25 09:30N 34°42' E 135°17'0 0.0
2016-Aug-25 08:30N 34°42' E 135°17'0 0.0
2016-Aug-25 07:30N 34°42' E 135°17'0 0.0
2016-Aug-25 06:30N 34°42' E 135°17'0 0.0
2016-Aug-25 04:30N 34°42' E 135°17'0 0.0
2016-Aug-25 03:30N 34°42' E 135°17'0 0.0
2016-Aug-25 02:30N 34°42' E 135°17'0 0.0
2016-Aug-25 01:30N 34°42' E 135°17'0 0.0
2016-Aug-25 00:30N 34°42' E 135°17'0 0.0
2016-Aug-24 23:30N 34°42' E 135°17'0 0.0
2016-Aug-24 22:30N 34°42' E 135°17'0 0.0
2016-Aug-24 21:33N 34°42' E 135°17'1212.3
2016-Aug-24 20:34N 34°34' E 135°06'13 0.4
2016-Aug-23 11:28N 34°35' E 134°50'1719.1
2016-Aug-23 10:33N 34°36' E 135°11'8 7.4
2016-Aug-23 09:32N 34°42' E 135°17'0 0.0
2016-Aug-23 08:32N 34°42' E 135°17'0 0.0
2016-Aug-23 07:32N 34°42' E 135°17'0 0.0
2016-Aug-23 06:32N 34°42' E 135°17'0 0.0
2016-Aug-23 05:32N 34°42' E 135°17'0 0.0
2016-Aug-23 04:26N 34°42' E 135°17'0 0.0
2016-Aug-23 03:32N 34°42' E 135°17'0 0.0
2016-Aug-23 02:32N 34°42' E 135°17'0 0.0
2016-Aug-23 01:32N 34°42' E 135°17'0 0.0
2016-Aug-23 00:32N 34°42' E 135°17'0 0.0
2016-Aug-22 23:32N 34°42' E 135°17'0 0.0
2016-Aug-22 22:32N 34°42' E 135°17'0 0.0
2016-Aug-22 21:33N 34°42' E 135°17'10 9.9
2016-Aug-22 20:33N 34°35' E 135°09'16 0.5
2016-Aug-21 11:29N 34°34' E 134°49'1819.9
2016-Aug-21 10:33N 34°36' E 135°11'7 5.7
2016-Aug-21 09:16N 34°42' E 135°17'0 0.0
2016-Aug-21 08:28N 34°42' E 135°17'0 0.0
2016-Aug-21 07:22N 34°42' E 135°17'0 0.0
2016-Aug-21 06:28N 34°42' E 135°17'0 0.0
2016-Aug-21 05:22N 34°42' E 135°17'0 0.0
2016-Aug-21 04:28N 34°42' E 135°17'0 0.0
2016-Aug-21 03:16N 34°42' E 135°17'0 0.0
2016-Aug-21 02:28N 34°42' E 135°17'0 0.0
2016-Aug-21 01:28N 34°42' E 135°17'0 0.0
2016-Aug-21 00:28N 34°42' E 135°17'0 0.0
2016-Aug-20 23:28N 34°42' E 135°17'2 2.6
2016-Aug-20 22:33N 34°40' E 135°18'1716.6
2016-Aug-20 21:33N 34°37' E 134°58'5 0.2
2016-Aug-19 12:10N 34°35' E 134°53'1321.0
2016-Aug-19 11:33N 34°36' E 135°08'9 9.4
2016-Aug-19 10:33N 34°42' E 135°17'0 0.0
2016-Aug-19 09:20N 34°42' E 135°17'0 0.0
2016-Aug-19 08:20N 34°42' E 135°17'0 0.0
2016-Aug-19 07:32N 34°42' E 135°17'0 0.0
2016-Aug-19 06:32N 34°42' E 135°17'  

Dump ship's entire track history